createdAt,value
2023-01-21T00:01:19.873Z,96751.64
2023-01-21T00:03:48.336Z,96752.84
2023-01-21T00:06:16.584Z,96753.18
2023-01-21T00:08:44.785Z,96756.80
2023-01-21T00:11:15.406Z,96759.89
2023-01-21T00:13:44.931Z,96766.08
2023-01-21T00:16:14.242Z,96771.77
2023-01-21T00:18:42.421Z,96782.11
2023-01-21T00:21:10.929Z,96790.76
2023-01-21T00:23:39.507Z,96796.45
2023-01-21T00:26:11.026Z,96799.37
2023-01-21T00:28:39.185Z,96804.52
2023-01-21T00:31:09.334Z,96805.41
2023-01-21T00:33:38.678Z,96803.88
2023-01-21T00:36:10.205Z,96804.05
2023-01-21T00:38:39.015Z,96805.75
2023-01-21T00:41:10.785Z,96804.56
2023-01-21T00:43:40.335Z,96800.98
2023-01-21T00:46:09.078Z,96801.67
2023-01-21T00:48:37.852Z,96801.66
2023-01-21T00:51:06.721Z,96801.49
2023-01-21T00:53:38.328Z,96806.51
2023-01-21T00:56:08.748Z,96812.55
2023-01-21T00:58:37.718Z,96817.23
2023-01-21T01:01:20.798Z,96817.42
2023-01-21T01:03:50.429Z,96824.50
2023-01-21T01:06:21.375Z,96827.95
2023-01-21T01:08:49.988Z,96832.61
2023-01-21T01:11:21.763Z,96829.02
2023-01-21T01:13:50.322Z,96828.19
2023-01-21T01:16:19.024Z,96832.48
2023-01-21T01:18:47.920Z,96834.91
2023-01-21T01:21:19.361Z,96835.95
2023-01-21T01:23:48.723Z,96838.19
2023-01-21T01:26:18.642Z,96845.94
2023-01-21T01:28:47.098Z,96854.21
2023-01-21T01:31:18.196Z,96859.56
2023-01-21T01:33:47.610Z,96863.36
2023-01-21T01:36:25.377Z,96865.42
2023-01-21T01:38:54.441Z,96868.52
2023-01-21T01:41:27.546Z,96872.84
2023-01-21T01:44:03.449Z,96877.14
2023-01-21T01:46:34.346Z,96879.72
2023-01-21T01:49:16.810Z,96882.31
2023-01-21T01:51:59.106Z,96881.28
2023-01-21T01:54:36.429Z,96881.11
2023-01-21T01:57:09.185Z,96881.11
2023-01-21T01:59:37.963Z,96882.48
2023-01-21T02:02:09.603Z,96885.75
2023-01-21T02:05:01.338Z,96890.75
2023-01-21T02:07:33.520Z,96895.23
2023-01-21T02:10:02.638Z,96894.89
2023-01-21T02:12:30.960Z,96893.87
2023-01-21T02:14:59.757Z,96892.82
2023-01-21T02:17:41.152Z,96892.81
2023-01-21T02:20:38.567Z,96896.62
2023-01-21T02:23:13.364Z,96901.96
2023-01-21T02:26:03.368Z,96904.73
2023-01-21T02:28:46.506Z,96912.31
2023-01-21T02:31:29.350Z,96913.52
2023-01-21T02:34:25.524Z,96911.80
2023-01-21T02:37:14.353Z,96911.27
2023-01-21T02:40:06.781Z,96912.13
2023-01-21T02:42:50.514Z,96906.09
2023-01-21T02:45:32.624Z,96908.69
2023-01-21T02:48:06.624Z,96907.30
2023-01-21T02:50:44.940Z,96903.51
2023-01-21T02:53:27.685Z,96904.89
2023-01-21T02:55:59.524Z,96905.23
2023-01-21T02:58:39.194Z,96905.92
2023-01-21T03:01:13.718Z,96905.23
2023-01-21T03:04:00.348Z,96910.22
2023-01-21T03:06:53.011Z,96910.90
2023-01-21T03:09:30.928Z,96918.48
2023-01-21T03:12:02.543Z,96927.10
2023-01-21T03:14:55.812Z,96931.95
2023-01-21T03:17:23.826Z,96939.88
2023-01-21T03:20:16.968Z,96948.33
2023-01-21T03:22:47.956Z,96952.98
2023-01-21T03:25:18.000Z,96953.51
2023-01-21T03:27:48.649Z,96960.56
2023-01-21T03:30:20.525Z,96961.08
2023-01-21T03:32:52.111Z,96974.86
2023-01-21T03:35:37.766Z,96982.79
2023-01-21T03:38:24.552Z,96985.04
2023-01-21T03:41:05.327Z,96989.36
2023-01-21T03:43:33.894Z,96987.27
2023-01-21T03:46:10.258Z,96985.71
2023-01-21T03:48:48.251Z,96990.20
2023-01-21T03:51:25.056Z,96998.28
2023-01-21T03:53:57.563Z,96996.20
2023-01-21T03:56:27.757Z,96998.07
2023-01-21T03:58:56.025Z,97000.14
2023-01-21T04:01:24.259Z,97004.62
2023-01-21T04:03:52.359Z,97007.54
2023-01-21T04:06:22.696Z,97013.73
2023-01-21T04:08:51.459Z,97015.46
2023-01-21T04:11:19.579Z,97013.38
2023-01-21T04:13:47.836Z,97016.98
2023-01-21T04:16:16.082Z,97021.48
2023-01-21T04:18:44.334Z,97024.07
2023-01-21T04:21:12.452Z,97028.39
2023-01-21T04:23:40.735Z,97035.61
2023-01-21T04:26:09.148Z,97044.05
2023-01-21T04:28:37.330Z,97049.91
2023-01-21T04:31:05.616Z,97055.08
2023-01-21T04:33:34.219Z,97058.50
2023-01-21T04:36:02.320Z,97063.15
2023-01-21T04:38:30.431Z,97067.63
2023-01-21T04:40:58.590Z,97070.39
2023-01-21T04:43:26.668Z,97074.22
2023-01-21T04:45:54.754Z,97070.61
2023-01-21T04:48:23.008Z,97064.06
2023-01-21T04:50:51.139Z,97068.21
2023-01-21T04:53:19.381Z,97065.46
2023-01-21T04:55:47.497Z,97063.23
2023-01-21T04:58:15.700Z,97062.36
2023-01-21T05:00:44.521Z,97059.27
2023-01-21T05:03:13.164Z,97052.89
2023-01-21T05:05:41.335Z,97058.39
2023-01-21T05:08:09.527Z,97071.98
2023-01-21T05:10:37.855Z,97078.86
2023-01-21T05:13:06.282Z,97075.23
2023-01-21T05:15:34.713Z,97081.23
2023-01-21T05:18:02.804Z,97085.66
2023-01-21T05:20:30.988Z,97087.35
2023-01-21T05:22:59.011Z,97086.48
2023-01-21T05:25:27.215Z,97087.32
2023-01-21T05:27:55.599Z,97090.92
2023-01-21T05:30:24.079Z,97096.76
2023-01-21T05:32:53.753Z,97101.91
2023-01-21T05:35:24.112Z,97105.54
2023-01-21T05:37:52.212Z,97113.65
2023-01-21T05:40:20.571Z,97117.08
2023-01-21T05:42:48.822Z,97114.85
2023-01-21T05:45:17.065Z,97106.76
2023-01-21T05:47:45.318Z,97110.52
2023-01-21T05:50:13.781Z,97120.33
2023-01-21T05:52:42.514Z,97121.89
2023-01-21T05:55:11.065Z,97123.63
2023-01-21T05:57:39.546Z,97120.54
2023-01-21T06:00:08.786Z,97118.48
2023-01-21T06:02:37.342Z,97121.61
2023-01-21T06:05:06.034Z,97124.41
2023-01-21T06:07:34.143Z,97138.36
2023-01-21T06:10:02.479Z,97150.60
2023-01-21T06:12:30.737Z,97159.75
2023-01-21T06:15:00.593Z,97170.62
2023-01-21T06:17:29.068Z,97171.35
2023-01-21T06:19:57.307Z,97167.23
2023-01-21T06:22:25.540Z,97168.26
2023-01-21T06:24:53.703Z,97174.80
2023-01-21T06:27:21.728Z,97183.56
2023-01-21T06:29:49.890Z,97189.76
2023-01-21T06:32:17.975Z,97187.88
2023-01-21T06:34:46.757Z,97182.52
2023-01-21T06:37:15.139Z,97194.74
2023-01-21T06:39:43.191Z,97203.39
2023-01-21T06:42:11.371Z,97199.61
2023-01-21T06:44:39.356Z,97203.57
2023-01-21T06:47:07.460Z,97207.38
2023-01-21T06:49:35.663Z,97210.14
2023-01-21T06:52:04.211Z,97213.56
2023-01-21T06:54:32.801Z,97219.41
2023-01-21T06:57:01.176Z,97222.15
2023-01-21T06:59:29.368Z,97224.05
2023-01-21T07:01:59.329Z,97222.67
2023-01-21T07:04:28.019Z,97230.27
2023-01-21T07:06:56.174Z,97234.76
2023-01-21T07:09:24.289Z,97237.00
2023-01-21T07:11:52.517Z,97238.90
2023-01-21T07:14:20.738Z,97242.19
2023-01-21T07:16:49.285Z,97243.42
2023-01-21T07:19:17.425Z,97243.98
2023-01-21T07:21:46.087Z,97238.14
2023-01-21T07:24:14.754Z,97235.23
2023-01-21T07:26:43.615Z,97235.40
2023-01-21T07:29:11.854Z,97237.84
2023-01-21T07:31:40.157Z,97241.98
2023-01-21T07:34:08.350Z,97244.94
2023-01-21T07:36:36.593Z,97248.39
2023-01-21T07:39:04.983Z,97252.20
2023-01-21T07:41:33.156Z,97253.23
2023-01-21T07:44:01.377Z,97258.42
2023-01-21T07:46:29.661Z,97268.73
2023-01-21T07:48:58.404Z,97272.39
2023-01-21T07:51:27.160Z,97277.41
2023-01-21T07:53:56.906Z,97281.09
2023-01-21T07:56:27.018Z,97279.59
2023-01-21T07:58:55.264Z,97279.14
2023-01-21T08:01:27.333Z,97281.26
2023-01-21T08:03:55.648Z,97289.58
2023-01-21T08:06:24.767Z,97301.48
2023-01-21T08:08:54.130Z,97307.03
2023-01-21T08:11:22.641Z,97308.95
2023-01-21T08:13:50.914Z,97308.44
2023-01-21T08:16:19.138Z,97313.27
2023-01-21T08:18:47.710Z,97314.33
2023-01-21T08:21:16.176Z,97315.73
2023-01-21T08:23:44.546Z,97312.82
2023-01-21T08:26:13.310Z,97306.11
2023-01-21T08:28:41.735Z,97301.81
2023-01-21T08:31:13.229Z,97303.71
2023-01-21T08:33:41.685Z,97304.06
2023-01-21T08:36:10.408Z,97304.95
2023-01-21T08:38:40.098Z,97312.56
2023-01-21T08:41:08.923Z,97315.68
2023-01-21T08:43:37.863Z,97312.76
2023-01-21T08:46:06.879Z,97317.58
2023-01-21T08:48:37.576Z,97327.94
2023-01-21T08:51:06.136Z,97330.00
2023-01-21T08:53:34.360Z,97344.29
2023-01-21T08:56:04.738Z,97346.51
2023-01-21T08:58:33.700Z,97352.70
2023-01-21T09:01:13.301Z,97354.42
2023-01-21T09:03:41.825Z,97356.34
2023-01-21T09:06:11.394Z,97358.79
2023-01-21T09:08:40.553Z,97363.13
2023-01-21T09:11:10.386Z,97366.09
2023-01-21T09:13:39.466Z,97371.83
2023-01-21T09:16:13.561Z,97366.31
2023-01-21T09:18:42.123Z,97361.33
2023-01-21T09:21:11.993Z,97362.38
2023-01-21T09:23:40.942Z,97358.39
2023-01-21T09:26:18.694Z,97362.02
2023-01-21T09:28:56.114Z,97360.64
2023-01-21T09:31:26.073Z,97363.94
2023-01-21T09:34:04.361Z,97368.77
2023-01-21T09:36:35.728Z,97368.94
2023-01-21T09:39:04.053Z,97360.29
2023-01-21T09:41:39.452Z,97360.98
2023-01-21T09:44:36.762Z,97362.90
2023-01-21T09:47:29.940Z,97359.96
2023-01-21T09:50:04.187Z,97359.77
2023-01-21T09:52:43.302Z,97357.35
2023-01-21T09:55:24.121Z,97356.49
2023-01-21T09:58:09.210Z,97366.34
2023-01-21T10:00:43.227Z,97381.52
2023-01-21T10:03:30.262Z,97385.02
2023-01-21T10:06:09.949Z,97387.27
2023-01-21T10:08:53.655Z,97385.57
2023-01-21T10:11:50.200Z,97373.14
2023-01-21T10:14:30.910Z,97361.23
2023-01-21T10:17:31.730Z,97350.86
2023-01-21T10:20:13.413Z,97349.11
2023-01-21T10:22:50.131Z,97348.25
2023-01-21T10:25:26.830Z,97350.51
2023-01-21T10:28:02.773Z,97342.38
2023-01-21T10:30:45.630Z,97333.02
2023-01-21T10:33:26.957Z,97337.35
2023-01-21T10:36:16.899Z,97332.33
2023-01-21T10:39:06.192Z,97328.36
2023-01-21T10:41:52.601Z,97327.84
2023-01-21T10:44:29.748Z,97321.41
2023-01-21T10:47:09.960Z,97323.84
2023-01-21T10:49:56.877Z,97324.34
2023-01-21T10:53:00.678Z,97323.67
2023-01-21T10:56:08.336Z,97322.79
2023-01-21T10:58:56.879Z,97323.45
2023-01-21T11:01:32.530Z,97332.76
2023-01-21T11:04:05.962Z,97340.34
2023-01-21T11:06:35.664Z,97335.98
2023-01-21T11:09:07.181Z,97337.89
2023-01-21T11:11:35.867Z,97341.70
2023-01-21T11:14:04.431Z,97359.20
2023-01-21T11:16:43.556Z,97363.88
2023-01-21T11:19:23.353Z,97360.39
2023-01-21T11:22:00.854Z,97349.81
2023-01-21T11:24:30.053Z,97335.12
2023-01-21T11:27:02.276Z,97334.98
2023-01-21T11:29:40.626Z,97344.90
2023-01-21T11:32:22.609Z,97344.23
2023-01-21T11:34:56.702Z,97338.17
2023-01-21T11:37:30.233Z,97333.83
2023-01-21T11:40:21.165Z,97333.11
2023-01-21T11:42:58.972Z,97331.40
2023-01-21T11:45:33.180Z,97334.36
2023-01-21T11:48:01.945Z,97338.36
2023-01-21T11:50:35.012Z,97327.27
2023-01-21T11:53:14.619Z,97320.15
2023-01-21T11:55:47.067Z,97317.52
2023-01-21T11:58:29.603Z,97322.83
2023-01-21T12:01:01.390Z,97322.45
2023-01-21T12:03:38.944Z,97323.81
2023-01-21T12:06:08.140Z,97316.48
2023-01-21T12:08:38.796Z,97312.27
2023-01-21T12:11:08.630Z,97314.67
2023-01-21T12:14:21.949Z,97312.23
2023-01-21T12:17:02.226Z,97314.50
2023-01-21T12:20:23.895Z,97308.80
2023-01-21T12:23:16.989Z,97296.13
2023-01-21T12:26:01.548Z,97296.35
2023-01-21T12:28:51.638Z,97301.37
2023-01-21T12:31:43.000Z,97307.23
2023-01-21T12:34:21.215Z,97310.85
2023-01-21T12:37:18.458Z,97313.45
2023-01-21T12:39:50.879Z,97315.63
2023-01-21T12:42:38.384Z,97322.77
2023-01-21T12:45:14.403Z,97337.67
2023-01-21T12:47:53.043Z,97346.70
2023-01-21T12:50:44.965Z,97338.23
2023-01-21T12:53:35.160Z,97331.83
2023-01-21T12:56:04.136Z,97326.97
2023-01-21T12:58:40.771Z,97328.19
2023-01-21T13:01:31.502Z,97337.36
2023-01-21T13:04:24.532Z,97335.25
2023-01-21T13:07:14.183Z,97332.48
2023-01-21T13:10:07.567Z,97327.79
2023-01-21T13:12:37.697Z,97329.36
2023-01-21T13:15:12.296Z,97330.05
2023-01-21T13:17:43.738Z,97325.89
2023-01-21T13:20:21.359Z,97321.54
2023-01-21T13:23:13.980Z,97321.41
2023-01-21T13:26:07.250Z,97321.61
2023-01-21T13:28:46.188Z,97323.09
2023-01-21T13:31:56.241Z,97329.08
2023-01-21T13:34:39.320Z,97335.75
2023-01-21T13:37:35.245Z,97337.02
2023-01-21T13:40:16.179Z,97340.11
2023-01-21T13:42:59.927Z,97340.23
2023-01-21T13:45:28.167Z,97335.39
2023-01-21T13:48:05.980Z,97338.35
2023-01-21T13:51:05.259Z,97341.38
2023-01-21T13:53:39.208Z,97338.02
2023-01-21T13:56:35.044Z,97340.31
2023-01-21T13:59:07.774Z,97338.63
2023-01-21T14:01:44.747Z,97341.79
2023-01-21T14:04:17.465Z,97336.45
2023-01-21T14:07:19.297Z,97333.73
2023-01-21T14:10:00.343Z,97331.70
2023-01-21T14:13:00.133Z,97340.91
2023-01-21T14:15:51.937Z,97345.77
2023-01-21T14:18:51.552Z,97346.99
2023-01-21T14:21:44.184Z,97348.72
2023-01-21T14:24:32.416Z,97357.05
2023-01-21T14:27:20.773Z,97357.76
2023-01-21T14:29:59.237Z,97365.41
2023-01-21T14:32:36.190Z,97371.30
2023-01-21T14:35:16.024Z,97373.91
2023-01-21T14:37:57.302Z,97381.19
2023-01-21T14:40:32.352Z,97390.05
2023-01-21T14:43:01.106Z,97387.98
2023-01-21T14:45:51.231Z,97386.77
2023-01-21T14:48:34.089Z,97386.42
2023-01-21T14:51:05.689Z,97385.73
2023-01-21T14:53:45.751Z,97394.39
2023-01-21T14:56:32.444Z,97393.70
2023-01-21T14:59:26.622Z,97391.80
2023-01-21T15:02:04.206Z,97391.80
2023-01-21T15:04:40.300Z,97397.88
2023-01-21T15:07:21.836Z,97400.99
2023-01-21T15:09:56.643Z,97399.45
2023-01-21T15:12:31.689Z,97396.67
2023-01-21T15:15:03.692Z,97398.23
2023-01-21T15:18:21.559Z,97397.55
2023-01-21T15:21:01.222Z,97394.60
2023-01-21T15:23:29.479Z,97399.45
2023-01-21T15:26:09.545Z,97403.59
2023-01-21T15:28:48.259Z,97402.56
2023-01-21T15:31:22.211Z,97402.04
2023-01-21T15:33:57.865Z,97403.08
2023-01-21T15:36:26.381Z,97406.89
2023-01-21T15:39:18.065Z,97414.33
2023-01-21T15:41:55.217Z,97417.62
2023-01-21T15:44:41.598Z,97420.54
2023-01-21T15:47:32.932Z,97420.55
2023-01-21T15:50:07.078Z,97419.34
2023-01-21T15:53:09.005Z,97425.73
2023-01-21T15:56:08.327Z,97431.80
2023-01-21T15:58:51.495Z,97432.66
2023-01-21T16:01:36.093Z,97436.64
2023-01-21T16:04:30.940Z,97441.30
2023-01-21T16:07:05.187Z,97444.59
2023-01-21T16:09:46.070Z,97442.34
2023-01-21T16:12:26.090Z,97436.45
2023-01-21T16:15:12.803Z,97431.79
2023-01-21T16:18:13.875Z,97431.79
2023-01-21T16:20:48.517Z,97441.13
2023-01-21T16:23:19.553Z,97446.48
2023-01-21T16:25:50.788Z,97451.34
2023-01-21T16:28:20.884Z,97459.63
2023-01-21T16:30:59.303Z,97464.15
2023-01-21T16:33:27.755Z,97467.09
2023-01-21T16:36:01.356Z,97476.44
2023-01-21T16:38:32.891Z,97472.98
2023-01-21T16:41:07.471Z,97467.61
2023-01-21T16:43:38.596Z,97469.86
2023-01-21T16:46:13.941Z,97473.51
2023-01-21T16:48:42.824Z,97475.75
2023-01-21T16:51:41.492Z,97479.55
2023-01-21T16:54:24.949Z,97488.36
2023-01-21T16:57:21.320Z,97489.23
2023-01-21T16:59:50.165Z,97486.98
2023-01-21T17:02:29.561Z,97485.23
2023-01-21T17:05:01.097Z,97488.69
2023-01-21T17:07:34.718Z,97480.02
2023-01-21T17:10:08.325Z,97482.27
2023-01-21T17:12:37.197Z,97483.11
2023-01-21T17:15:18.700Z,97492.80
2023-01-21T17:17:47.961Z,97497.27
2023-01-21T17:20:35.261Z,97496.07
2023-01-21T17:23:36.733Z,97499.72
2023-01-21T17:26:09.903Z,97500.92
2023-01-21T17:28:59.842Z,97498.16
2023-01-21T17:31:30.549Z,97491.92
2023-01-21T17:34:10.986Z,97484.33
2023-01-21T17:36:40.987Z,97487.43
2023-01-21T17:39:11.011Z,97494.52
2023-01-21T17:41:46.272Z,97496.92
2023-01-21T17:44:19.781Z,97506.77
2023-01-21T17:46:51.748Z,97510.75
2023-01-21T17:49:26.289Z,97516.97
2023-01-21T17:51:55.926Z,97518.17
2023-01-21T17:54:26.390Z,97523.36
2023-01-21T17:56:57.545Z,97523.71
2023-01-21T17:59:35.441Z,97521.62
2023-01-21T18:02:11.104Z,97534.05
2023-01-21T18:04:40.361Z,97541.29
2023-01-21T18:07:27.760Z,97540.38
2023-01-21T18:10:02.551Z,97540.67
2023-01-21T18:12:31.197Z,97547.01
2023-01-21T18:14:59.329Z,97543.83
2023-01-21T18:17:27.651Z,97546.34
2023-01-21T18:19:57.873Z,97551.10
2023-01-21T18:22:31.999Z,97548.45
2023-01-21T18:25:03.034Z,97552.69
2023-01-21T18:27:31.290Z,97552.77
2023-01-21T18:29:59.668Z,97552.35
2023-01-21T18:32:28.018Z,97554.70
2023-01-21T18:34:56.111Z,97559.15
2023-01-21T18:37:25.415Z,97564.83
2023-01-21T18:39:53.690Z,97567.20
2023-01-21T18:42:22.694Z,97569.44
2023-01-21T18:44:51.793Z,97569.41
2023-01-21T18:47:20.640Z,97567.33
2023-01-21T18:49:51.091Z,97566.30
2023-01-21T18:52:21.303Z,97562.86
2023-01-21T18:54:49.696Z,97558.57
2023-01-21T18:57:23.095Z,97554.95
2023-01-21T18:59:51.266Z,97559.62
2023-01-21T19:02:21.109Z,97564.27
2023-01-21T19:04:49.383Z,97571.12
2023-01-21T19:07:21.554Z,97568.84
2023-01-21T19:09:51.512Z,97566.58
2023-01-21T19:12:21.356Z,97572.60
2023-01-21T19:14:49.541Z,97577.45
2023-01-21T19:17:29.831Z,97580.05
2023-01-21T19:19:58.791Z,97583.50
2023-01-21T19:22:26.981Z,97587.81
2023-01-21T19:24:55.207Z,97581.58
2023-01-21T19:27:28.694Z,97581.52
2023-01-21T19:29:56.726Z,97580.09
2023-01-21T19:32:25.455Z,97581.09
2023-01-21T19:34:55.896Z,97579.52
2023-01-21T19:37:25.194Z,97577.23
2023-01-21T19:39:53.768Z,97571.80
2023-01-21T19:42:22.240Z,97576.89
2023-01-21T19:44:50.546Z,97577.02
2023-01-21T19:47:23.969Z,97577.98
2023-01-21T19:49:52.031Z,97576.63
2023-01-21T19:52:20.475Z,97573.24
2023-01-21T19:54:48.618Z,97570.07
2023-01-21T19:57:17.943Z,97568.11
2023-01-21T19:59:49.704Z,97564.80
2023-01-21T20:02:18.108Z,97562.41
2023-01-21T20:04:47.968Z,97565.71
2023-01-21T20:07:17.012Z,97570.23
2023-01-21T20:09:45.930Z,97568.92
2023-01-21T20:12:14.312Z,97571.78
2023-01-21T20:14:42.514Z,97581.69
2023-01-21T20:17:13.456Z,97589.32
2023-01-21T20:19:41.890Z,97592.63
2023-01-21T20:22:13.107Z,97592.14
2023-01-21T20:24:41.383Z,97603.90
2023-01-21T20:27:14.286Z,97606.00
2023-01-21T20:29:49.461Z,97605.16
2023-01-21T20:32:23.931Z,97610.16
2023-01-21T20:34:52.316Z,97610.48
2023-01-21T20:37:20.525Z,97611.16
2023-01-21T20:39:58.584Z,97612.34
2023-01-21T20:42:33.684Z,97607.30
2023-01-21T20:45:04.254Z,97601.01
2023-01-21T20:47:43.374Z,97602.58
2023-01-21T20:50:22.133Z,97594.41
2023-01-21T20:52:52.141Z,97590.73
2023-01-21T20:55:24.338Z,97606.40
2023-01-21T20:57:53.142Z,97619.13
2023-01-21T21:00:23.330Z,97627.92
2023-01-21T21:02:59.286Z,97627.05
2023-01-21T21:05:29.109Z,97627.58
2023-01-21T21:07:57.241Z,97632.25
2023-01-21T21:10:34.704Z,97627.77
2023-01-21T21:13:03.426Z,97622.91
2023-01-21T21:15:35.327Z,97623.58
2023-01-21T21:18:04.173Z,97629.82
2023-01-21T21:20:36.097Z,97639.14
2023-01-21T21:23:05.146Z,97649.66
2023-01-21T21:25:40.575Z,97660.05
2023-01-21T21:28:12.966Z,97667.32
2023-01-21T21:30:41.643Z,97664.23
2023-01-21T21:33:19.387Z,97660.97
2023-01-21T21:35:48.062Z,97660.92
2023-01-21T21:38:21.979Z,97660.20
2023-01-21T21:40:53.312Z,97654.98
2023-01-21T21:43:35.882Z,97654.45
2023-01-21T21:46:27.888Z,97656.02
2023-01-21T21:48:56.016Z,97660.27
2023-01-21T21:51:25.335Z,97651.05
2023-01-21T21:53:53.477Z,97649.20
2023-01-21T21:56:23.533Z,97643.15
2023-01-21T21:58:52.008Z,97641.27
2023-01-21T22:01:23.756Z,97643.38
2023-01-21T22:03:52.699Z,97643.80
2023-01-21T22:06:22.553Z,97641.47
2023-01-21T22:08:54.742Z,97646.90
2023-01-21T22:11:25.247Z,97644.05
2023-01-21T22:13:54.520Z,97644.27
2023-01-21T22:16:28.005Z,97642.55
2023-01-21T22:19:00.353Z,97647.67
2023-01-21T22:21:37.851Z,97643.84
2023-01-21T22:24:08.367Z,97645.20
2023-01-21T22:26:37.069Z,97645.34
2023-01-21T22:29:06.359Z,97644.98
2023-01-21T22:31:34.694Z,97642.19
2023-01-21T22:34:03.611Z,97637.90
2023-01-21T22:36:32.357Z,97638.63
2023-01-21T22:39:02.330Z,97637.33
2023-01-21T22:41:31.045Z,97633.14
2023-01-21T22:43:59.415Z,97628.42
2023-01-21T22:46:30.287Z,97632.05
2023-01-21T22:48:58.982Z,97640.51
2023-01-21T22:51:28.392Z,97641.02
2023-01-21T22:53:57.336Z,97632.73
2023-01-21T22:56:45.098Z,97627.66
2023-01-21T22:59:14.734Z,97641.69
2023-01-21T23:01:43.077Z,97656.83
2023-01-21T23:04:11.625Z,97653.05
2023-01-21T23:06:39.642Z,97656.49
2023-01-21T23:09:11.151Z,97655.17
2023-01-21T23:11:42.340Z,97654.02
2023-01-21T23:14:11.018Z,97650.04
2023-01-21T23:16:39.869Z,97650.08
2023-01-21T23:19:07.909Z,97657.16
2023-01-21T23:21:38.658Z,97657.34
2023-01-21T23:24:07.760Z,97665.95
2023-01-21T23:26:37.942Z,97669.60
2023-01-21T23:29:06.440Z,97664.78
2023-01-21T23:31:35.645Z,97670.82
2023-01-21T23:34:04.048Z,97675.79
2023-01-21T23:36:32.505Z,97667.83
2023-01-21T23:39:04.424Z,97666.04
2023-01-21T23:41:32.758Z,97672.18
2023-01-21T23:44:01.685Z,97682.58
2023-01-21T23:46:30.187Z,97682.17
2023-01-21T23:48:58.494Z,97680.04
2023-01-21T23:51:26.679Z,97679.27
2023-01-21T23:53:56.659Z,97667.83
2023-01-21T23:56:26.099Z,97672.77
2023-01-21T23:58:54.616Z,97674.87
